createdAt,value
2023-05-09T00:01:33.533Z,12.77
2023-05-09T00:04:04.983Z,12.63
2023-05-09T00:06:37.469Z,12.66
2023-05-09T00:09:08.887Z,12.60
2023-05-09T00:11:40.760Z,12.55
2023-05-09T00:14:14.795Z,12.44
2023-05-09T00:16:46.132Z,12.51
2023-05-09T00:19:17.486Z,12.53
2023-05-09T00:21:48.808Z,12.33
2023-05-09T00:24:20.247Z,12.50
2023-05-09T00:26:51.544Z,12.49
2023-05-09T00:29:22.826Z,12.42
2023-05-09T00:31:54.133Z,12.40
2023-05-09T00:34:25.456Z,12.27
2023-05-09T00:36:56.825Z,12.33
2023-05-09T00:39:28.097Z,12.29
2023-05-09T00:41:59.371Z,12.23
2023-05-09T00:44:30.703Z,12.17
2023-05-09T00:47:02.011Z,12.10
2023-05-09T00:49:33.679Z,12.02
2023-05-09T00:52:05.538Z,12.12
2023-05-09T00:54:36.925Z,11.99
2023-05-09T00:57:08.716Z,12.07
2023-05-09T00:59:40.600Z,12.03
2023-05-09T01:02:12.556Z,11.98
2023-05-09T01:04:45.775Z,11.94
2023-05-09T01:07:23.826Z,11.91
2023-05-09T01:10:13.351Z,11.84
2023-05-09T01:12:58.757Z,11.78
2023-05-09T01:15:53.723Z,11.75
2023-05-09T01:18:45.957Z,11.72
2023-05-09T01:21:21.713Z,11.68
2023-05-09T01:24:10.448Z,11.64
2023-05-09T01:26:51.626Z,11.61
2023-05-09T01:29:51.788Z,11.60
2023-05-09T01:32:26.273Z,11.48
2023-05-09T01:35:01.293Z,11.48
2023-05-09T01:37:39.703Z,11.37
2023-05-09T01:40:15.281Z,11.39
2023-05-09T01:43:01.795Z,11.37
2023-05-09T01:45:34.139Z,11.24
2023-05-09T01:48:07.875Z,11.24
2023-05-09T01:50:40.867Z,11.16
2023-05-09T01:53:13.803Z,11.19
2023-05-09T01:55:46.996Z,11.24
2023-05-09T01:58:20.204Z,11.20
2023-05-09T02:00:51.914Z,11.09
2023-05-09T02:03:24.206Z,11.05
2023-05-09T02:05:56.704Z,11.03
2023-05-09T02:08:28.239Z,11.03
2023-05-09T02:10:59.601Z,10.96
2023-05-09T02:13:31.020Z,10.92
2023-05-09T02:16:02.495Z,10.90
2023-05-09T02:18:34.275Z,10.81
2023-05-09T02:21:06.215Z,10.84
2023-05-09T02:23:37.582Z,10.80
2023-05-09T02:26:09.099Z,10.76
2023-05-09T02:28:44.039Z,10.73
2023-05-09T02:31:18.009Z,10.71
2023-05-09T02:33:51.636Z,10.69
2023-05-09T02:36:24.188Z,10.60
2023-05-09T02:38:55.824Z,10.65
2023-05-09T02:41:29.743Z,10.65
2023-05-09T02:44:01.015Z,10.63
2023-05-09T02:46:33.281Z,10.52
2023-05-09T02:49:04.704Z,10.51
2023-05-09T02:51:36.249Z,10.42
2023-05-09T02:54:08.811Z,10.46
2023-05-09T02:56:40.147Z,10.45
2023-05-09T02:59:11.423Z,10.46
2023-05-09T03:01:42.805Z,10.47
2023-05-09T03:04:14.233Z,10.46
2023-05-09T03:06:45.722Z,10.46
2023-05-09T03:09:17.349Z,10.40
2023-05-09T03:11:48.629Z,10.40
2023-05-09T03:14:19.912Z,10.36
2023-05-09T03:16:51.619Z,10.35
2023-05-09T03:19:22.946Z,10.33
2023-05-09T03:21:54.335Z,10.35
2023-05-09T03:24:28.146Z,10.35
2023-05-09T03:26:59.482Z,10.25
2023-05-09T03:29:30.860Z,10.32
2023-05-09T03:32:02.180Z,10.30
2023-05-09T03:34:33.617Z,10.31
2023-05-09T03:37:04.930Z,10.32
2023-05-09T03:39:36.206Z,10.29
2023-05-09T03:42:07.492Z,10.19
2023-05-09T03:44:38.814Z,10.21
2023-05-09T03:47:10.160Z,10.20
2023-05-09T03:49:41.531Z,10.21
2023-05-09T03:52:12.844Z,10.20
2023-05-09T03:54:44.181Z,10.22
2023-05-09T03:57:15.637Z,10.09
2023-05-09T03:59:47.041Z,10.19
2023-05-09T04:02:18.467Z,10.20
2023-05-09T04:04:49.954Z,10.18
2023-05-09T04:07:21.844Z,10.17
2023-05-09T04:09:53.922Z,10.07
2023-05-09T04:12:25.210Z,10.13
2023-05-09T04:14:56.540Z,10.14
2023-05-09T04:17:27.834Z,10.15
2023-05-09T04:19:59.133Z,10.18
2023-05-09T04:22:30.550Z,10.19
2023-05-09T04:25:04.137Z,10.21
2023-05-09T04:27:35.482Z,10.21
2023-05-09T04:30:07.272Z,10.29
2023-05-09T04:32:38.870Z,10.34
2023-05-09T04:35:10.231Z,10.35
2023-05-09T04:37:41.877Z,10.38
2023-05-09T04:40:13.336Z,10.38
2023-05-09T04:42:45.150Z,10.51
2023-05-09T04:45:17.269Z,10.61
2023-05-09T04:47:48.728Z,10.67
2023-05-09T04:50:20.407Z,10.61
2023-05-09T04:52:51.739Z,10.80
2023-05-09T04:55:23.159Z,10.87
2023-05-09T04:57:54.455Z,10.89
2023-05-09T05:00:25.935Z,11.00
2023-05-09T05:02:57.410Z,11.04
2023-05-09T05:05:28.945Z,11.12
2023-05-09T05:08:00.492Z,11.19
2023-05-09T05:10:31.837Z,11.26
2023-05-09T05:13:03.274Z,11.34
2023-05-09T05:15:34.607Z,11.36
2023-05-09T05:18:06.181Z,11.43
2023-05-09T05:20:40.587Z,11.58
2023-05-09T05:23:12.195Z,11.68
2023-05-09T05:25:43.573Z,11.73
2023-05-09T05:28:14.957Z,11.77
2023-05-09T05:30:46.418Z,11.89
2023-05-09T05:33:17.752Z,11.98
2023-05-09T05:35:49.230Z,12.06
2023-05-09T05:38:20.595Z,12.17
2023-05-09T05:40:51.899Z,12.27
2023-05-09T05:43:23.227Z,12.23
2023-05-09T05:45:54.907Z,12.47
2023-05-09T05:48:26.629Z,12.54
2023-05-09T05:50:58.139Z,12.61
2023-05-09T05:53:30.815Z,12.73
2023-05-09T05:56:03.580Z,12.82
2023-05-09T05:58:34.950Z,12.90
2023-05-09T06:01:06.691Z,12.86
2023-05-09T06:03:38.102Z,13.08
2023-05-09T06:06:09.542Z,13.29
2023-05-09T06:08:40.954Z,14.20
2023-05-09T06:11:12.262Z,16.06
2023-05-09T06:13:44.194Z,17.47
2023-05-09T06:16:20.177Z,18.44
2023-05-09T06:18:54.120Z,19.30
2023-05-09T06:21:27.000Z,19.99
2023-05-09T06:24:09.874Z,20.24
2023-05-09T06:26:45.930Z,20.25
2023-05-09T06:29:17.333Z,19.97
2023-05-09T06:31:48.777Z,19.84
2023-05-09T06:34:20.127Z,19.66
2023-05-09T06:36:51.669Z,19.47
2023-05-09T06:39:23.030Z,19.25
2023-05-09T06:41:54.361Z,18.86
2023-05-09T06:44:26.790Z,18.62
2023-05-09T06:46:59.116Z,18.40
2023-05-09T06:49:30.449Z,18.06
2023-05-09T06:52:02.206Z,18.00
2023-05-09T06:54:33.588Z,18.00
2023-05-09T06:57:04.961Z,18.03
2023-05-09T06:59:36.540Z,18.03
2023-05-09T07:02:08.704Z,18.08
2023-05-09T07:04:40.090Z,18.30
2023-05-09T07:07:11.481Z,18.53
2023-05-09T07:09:42.790Z,18.70
2023-05-09T07:12:14.146Z,18.85
2023-05-09T07:14:45.521Z,19.19
2023-05-09T07:17:23.431Z,19.42
2023-05-09T07:19:56.070Z,19.64
2023-05-09T07:22:28.776Z,19.78
2023-05-09T07:25:02.141Z,19.95
2023-05-09T07:27:33.504Z,20.08
2023-05-09T07:30:05.992Z,20.08
2023-05-09T07:32:37.422Z,20.27
2023-05-09T07:35:08.780Z,20.41
2023-05-09T07:37:40.615Z,20.62
2023-05-09T07:40:12.530Z,20.91
2023-05-09T07:42:49.920Z,21.01
2023-05-09T07:45:23.670Z,21.04
2023-05-09T07:47:55.421Z,21.15
2023-05-09T07:50:26.845Z,21.28
2023-05-09T07:52:58.310Z,21.37
2023-05-09T07:55:29.830Z,21.60
2023-05-09T07:58:01.272Z,21.72
2023-05-09T08:00:32.611Z,21.72
2023-05-09T08:03:04.218Z,21.97
2023-05-09T08:05:35.826Z,22.16
2023-05-09T08:08:07.845Z,22.18
2023-05-09T08:10:39.254Z,22.19
2023-05-09T08:13:10.955Z,22.13
2023-05-09T08:15:42.404Z,21.98
2023-05-09T08:18:14.344Z,21.91
2023-05-09T08:20:45.777Z,22.02
2023-05-09T08:23:17.096Z,22.09
2023-05-09T08:25:52.879Z,22.26
2023-05-09T08:28:24.431Z,22.45
2023-05-09T08:30:56.842Z,22.46
2023-05-09T08:33:28.430Z,22.50
2023-05-09T08:36:00.181Z,22.81
2023-05-09T08:38:31.541Z,22.93
2023-05-09T08:41:03.374Z,22.72
2023-05-09T08:43:35.283Z,22.89
2023-05-09T08:46:08.510Z,22.89
2023-05-09T08:48:42.604Z,23.01
2023-05-09T08:51:16.004Z,23.13
2023-05-09T08:53:47.651Z,23.37
2023-05-09T08:56:19.090Z,23.47
2023-05-09T09:01:23.361Z,23.58
2023-05-09T09:03:56.196Z,23.51
2023-05-09T09:06:30.000Z,23.52
2023-05-09T09:09:05.966Z,23.52
2023-05-09T09:11:38.828Z,23.55
2023-05-09T09:14:20.124Z,23.60
2023-05-09T09:16:54.282Z,23.51
2023-05-09T09:19:31.266Z,23.41
2023-05-09T09:22:06.161Z,23.44
2023-05-09T09:24:37.657Z,23.38
2023-05-09T09:27:23.957Z,23.30
2023-05-09T09:30:12.114Z,23.35
2023-05-09T09:32:53.759Z,23.41
2023-05-09T09:35:26.222Z,23.41
2023-05-09T09:38:06.460Z,23.45
2023-05-09T09:40:40.462Z,23.50
2023-05-09T09:43:12.200Z,23.73
2023-05-09T09:45:43.996Z,23.72
2023-05-09T09:48:15.413Z,23.55
2023-05-09T09:50:47.851Z,23.53
2023-05-09T09:53:20.334Z,23.51
2023-05-09T09:55:52.085Z,23.51
2023-05-09T09:58:25.073Z,23.60
2023-05-09T10:01:16.235Z,23.83
2023-05-09T10:03:48.124Z,24.18
2023-05-09T10:06:19.571Z,24.25
2023-05-09T10:08:51.096Z,24.28
2023-05-09T10:11:23.456Z,24.20
2023-05-09T10:13:55.044Z,24.33
2023-05-09T10:16:42.741Z,24.34
2023-05-09T10:19:18.765Z,24.31
2023-05-09T10:21:55.436Z,24.20
2023-05-09T10:24:51.019Z,24.09
2023-05-09T10:27:26.938Z,24.19
2023-05-09T10:30:08.111Z,24.25
2023-05-09T10:32:54.240Z,24.33
2023-05-09T10:35:29.601Z,24.36
2023-05-09T10:38:01.867Z,24.33
2023-05-09T10:40:34.427Z,24.31
2023-05-09T10:43:07.132Z,24.36
2023-05-09T10:45:38.883Z,24.43
2023-05-09T10:48:11.758Z,24.36
2023-05-09T10:50:43.601Z,24.49
2023-05-09T10:53:17.009Z,24.44
2023-05-09T10:55:52.939Z,24.60
2023-05-09T10:58:27.419Z,24.53
2023-05-09T11:01:01.390Z,24.56
2023-05-09T11:03:58.382Z,24.62
2023-05-09T11:06:41.741Z,24.57
2023-05-09T11:09:30.173Z,24.61
2023-05-09T11:12:04.509Z,24.69
2023-05-09T11:14:35.917Z,24.65
2023-05-09T11:17:13.680Z,24.70
2023-05-09T11:19:45.339Z,24.66
2023-05-09T11:22:20.525Z,24.65
2023-05-09T11:24:58.891Z,24.55
2023-05-09T11:27:38.582Z,24.49
2023-05-09T11:30:17.366Z,24.45
2023-05-09T11:32:55.791Z,24.48
2023-05-09T11:35:27.905Z,24.83
2023-05-09T11:38:04.826Z,25.14
2023-05-09T11:40:37.282Z,25.25
2023-05-09T11:43:09.302Z,25.43
2023-05-09T11:45:41.498Z,25.59
2023-05-09T11:48:12.824Z,25.75
2023-05-09T11:50:47.798Z,25.88
2023-05-09T11:53:19.118Z,25.91
2023-05-09T11:55:50.586Z,25.81
2023-05-09T11:58:21.994Z,25.84
2023-05-09T12:00:53.440Z,26.04
2023-05-09T12:03:25.194Z,26.12
2023-05-09T12:05:56.885Z,26.14
2023-05-09T12:08:28.647Z,26.19
2023-05-09T12:11:09.709Z,26.32
2023-05-09T12:13:48.979Z,26.22
2023-05-09T12:16:21.211Z,25.96
2023-05-09T12:18:53.231Z,25.93
2023-05-09T12:21:24.636Z,25.81
2023-05-09T12:23:56.628Z,25.91
2023-05-09T12:26:28.176Z,26.08
2023-05-09T12:28:59.886Z,26.16
2023-05-09T12:31:31.706Z,26.15
2023-05-09T12:34:03.675Z,26.33
2023-05-09T12:36:36.445Z,26.58
2023-05-09T12:39:10.608Z,26.84
2023-05-09T12:42:00.476Z,26.86
2023-05-09T12:44:32.756Z,26.80
2023-05-09T12:47:04.900Z,26.84
2023-05-09T12:49:36.747Z,26.98
2023-05-09T12:52:18.043Z,26.90
2023-05-09T12:54:52.013Z,26.83
2023-05-09T12:57:24.862Z,26.92
2023-05-09T13:00:00.033Z,26.91
2023-05-09T13:02:39.872Z,26.78
2023-05-09T13:05:17.652Z,26.51
2023-05-09T13:07:52.172Z,26.49
2023-05-09T13:10:25.124Z,26.58
2023-05-09T13:12:57.263Z,26.75
2023-05-09T13:15:29.609Z,26.87
2023-05-09T13:18:00.966Z,27.01
2023-05-09T13:20:32.448Z,26.96
2023-05-09T13:23:03.880Z,27.02
2023-05-09T13:25:35.506Z,26.80
2023-05-09T13:28:07.136Z,26.57
2023-05-09T13:30:38.592Z,26.45
2023-05-09T13:33:24.653Z,26.38
2023-05-09T13:35:57.534Z,26.59
2023-05-09T13:38:30.842Z,26.72
2023-05-09T13:41:02.318Z,26.98
2023-05-09T13:43:34.195Z,27.08
2023-05-09T13:46:05.659Z,27.11
2023-05-09T13:48:37.676Z,27.08
2023-05-09T13:51:09.706Z,26.87
2023-05-09T13:53:41.084Z,26.57
2023-05-09T13:56:12.560Z,26.45
2023-05-09T13:58:43.965Z,26.56
2023-05-09T14:01:15.829Z,26.61
2023-05-09T14:03:49.030Z,26.76
2023-05-09T14:06:20.699Z,26.69
2023-05-09T14:08:52.086Z,26.78
2023-05-09T14:11:25.509Z,26.69
2023-05-09T14:13:56.872Z,26.64
2023-05-09T14:16:28.284Z,26.71
2023-05-09T14:19:01.370Z,26.82
2023-05-09T14:21:33.133Z,26.88
2023-05-09T14:24:04.964Z,26.76
2023-05-09T14:26:36.540Z,26.84
2023-05-09T14:29:07.875Z,26.83
2023-05-09T14:31:39.335Z,26.57
2023-05-09T14:34:11.600Z,26.41
2023-05-09T14:36:42.943Z,26.33
2023-05-09T14:39:14.420Z,26.47
2023-05-09T14:41:48.680Z,26.32
2023-05-09T14:44:19.948Z,26.19
2023-05-09T14:46:51.531Z,26.14
2023-05-09T14:49:22.867Z,26.05
2023-05-09T14:51:54.247Z,25.98
2023-05-09T14:54:25.805Z,26.00
2023-05-09T14:56:59.430Z,26.16
2023-05-09T14:59:31.052Z,26.10
2023-05-09T15:02:02.689Z,25.98
2023-05-09T15:04:34.133Z,26.02
2023-05-09T15:07:06.127Z,26.04
2023-05-09T15:09:38.398Z,26.00
2023-05-09T15:12:09.792Z,26.01
2023-05-09T15:14:41.457Z,26.00
2023-05-09T15:17:12.805Z,25.96
2023-05-09T15:19:44.085Z,25.89
2023-05-09T15:22:15.393Z,25.78
2023-05-09T15:24:47.057Z,25.66
2023-05-09T15:27:18.318Z,25.56
2023-05-09T15:29:49.585Z,25.41
2023-05-09T15:32:21.015Z,25.25
2023-05-09T15:34:52.513Z,25.13
2023-05-09T15:37:23.918Z,25.03
2023-05-09T15:39:55.276Z,24.97
2023-05-09T15:42:26.629Z,24.78
2023-05-09T15:44:57.984Z,24.79
2023-05-09T15:47:29.909Z,24.78
2023-05-09T15:50:01.307Z,24.72
2023-05-09T15:52:32.655Z,24.63
2023-05-09T15:55:04.409Z,24.47
2023-05-09T15:57:35.747Z,24.43
2023-05-09T16:00:07.622Z,24.35
2023-05-09T16:02:39.285Z,24.41
2023-05-09T16:05:11.018Z,24.39
2023-05-09T16:07:45.737Z,24.41
2023-05-09T16:10:17.379Z,24.31
2023-05-09T16:12:48.906Z,24.21
2023-05-09T16:15:20.586Z,24.13
2023-05-09T16:17:51.962Z,24.06
2023-05-09T16:20:24.397Z,23.97
2023-05-09T16:22:55.879Z,23.89
2023-05-09T16:25:27.396Z,23.86
2023-05-09T16:27:58.673Z,23.69
2023-05-09T16:30:30.327Z,23.68
2023-05-09T16:33:01.678Z,23.73
2023-05-09T16:35:33.228Z,23.46
2023-05-09T16:38:04.883Z,23.44
2023-05-09T16:40:36.796Z,23.34
2023-05-09T16:43:10.634Z,23.21
2023-05-09T16:45:42.031Z,23.10
2023-05-09T16:48:14.254Z,22.95
2023-05-09T16:50:46.205Z,22.79
2023-05-09T16:53:19.588Z,22.56
2023-05-09T16:55:53.745Z,22.48
2023-05-09T16:58:25.270Z,22.33
2023-05-09T17:00:57.033Z,22.21
2023-05-09T17:03:29.149Z,22.01
2023-05-09T17:06:00.447Z,21.97
2023-05-09T17:08:31.736Z,21.91
2023-05-09T17:11:03.043Z,21.86
2023-05-09T17:13:34.361Z,21.73
2023-05-09T17:16:07.030Z,21.70
2023-05-09T17:18:38.553Z,21.63
2023-05-09T17:21:10.228Z,21.59
2023-05-09T17:23:42.065Z,21.54
2023-05-09T17:26:13.355Z,21.56
2023-05-09T17:28:44.840Z,21.51
2023-05-09T17:31:16.247Z,21.49
2023-05-09T17:33:47.783Z,21.43
2023-05-09T17:36:19.050Z,21.36
2023-05-09T17:38:50.394Z,21.32
2023-05-09T17:41:22.153Z,21.27
2023-05-09T17:43:56.294Z,21.22
2023-05-09T17:46:27.915Z,21.18
2023-05-09T17:48:59.317Z,21.14
2023-05-09T17:51:30.581Z,21.07
2023-05-09T17:54:02.522Z,21.04
2023-05-09T17:56:34.251Z,20.94
2023-05-09T17:59:06.463Z,20.91
2023-05-09T18:01:38.053Z,20.84
2023-05-09T18:04:09.514Z,20.67
2023-05-09T18:06:40.798Z,20.66
2023-05-09T18:09:12.225Z,20.56
2023-05-09T18:11:44.476Z,20.42
2023-05-09T18:14:16.483Z,20.42
2023-05-09T18:16:47.830Z,20.31
2023-05-09T18:19:19.123Z,20.24
2023-05-09T18:21:51.510Z,20.15
2023-05-09T18:24:23.329Z,20.07
2023-05-09T18:26:54.701Z,19.99
2023-05-09T18:29:25.995Z,19.91
2023-05-09T18:31:57.663Z,19.83
2023-05-09T18:34:29.182Z,19.61
2023-05-09T18:37:00.473Z,19.68
2023-05-09T18:39:31.989Z,19.60
2023-05-09T18:42:06.430Z,19.43
2023-05-09T18:44:38.635Z,19.44
2023-05-09T18:47:10.254Z,19.28
2023-05-09T18:49:41.974Z,19.25
2023-05-09T18:52:14.096Z,18.95
2023-05-09T18:54:45.376Z,19.08
2023-05-09T18:57:16.724Z,19.03
2023-05-09T18:59:48.064Z,18.92
2023-05-09T19:02:20.561Z,18.87
2023-05-09T19:04:52.399Z,18.78
2023-05-09T19:07:24.075Z,18.71
2023-05-09T19:09:55.454Z,18.66
2023-05-09T19:12:28.559Z,18.56
2023-05-09T19:14:59.836Z,18.58
2023-05-09T19:17:31.692Z,18.51
2023-05-09T19:20:03.821Z,18.48
2023-05-09T19:22:35.503Z,18.41
2023-05-09T19:25:09.891Z,18.29
2023-05-09T19:27:41.223Z,18.24
2023-05-09T19:30:20.322Z,18.20
2023-05-09T19:32:52.569Z,18.08
2023-05-09T19:35:24.050Z,18.11
2023-05-09T19:37:55.496Z,18.01
2023-05-09T19:40:26.858Z,17.95
2023-05-09T19:42:58.547Z,17.89
2023-05-09T19:45:30.006Z,17.89
2023-05-09T19:48:01.358Z,17.83
2023-05-09T19:50:32.664Z,17.71
2023-05-09T19:53:03.941Z,17.73
2023-05-09T19:55:35.255Z,17.70
2023-05-09T19:58:06.638Z,17.66
2023-05-09T20:00:38.793Z,17.61
2023-05-09T20:03:10.265Z,17.52
2023-05-09T20:05:41.660Z,17.50
2023-05-09T20:08:12.945Z,17.46
2023-05-09T20:10:44.356Z,17.23
2023-05-09T20:13:15.721Z,17.38
2023-05-09T20:15:47.424Z,17.34
2023-05-09T20:18:18.784Z,17.26
2023-05-09T20:20:50.130Z,17.36
2023-05-09T20:23:21.415Z,17.35
2023-05-09T20:25:52.842Z,17.33
2023-05-09T20:28:24.276Z,17.29
2023-05-09T20:30:56.022Z,17.16
2023-05-09T20:33:27.306Z,17.26
2023-05-09T20:35:58.714Z,17.14
2023-05-09T20:38:30.034Z,17.12
2023-05-09T20:41:01.897Z,17.17
2023-05-09T20:43:33.192Z,17.19
2023-05-09T20:46:04.515Z,17.16
2023-05-09T20:48:36.021Z,17.11
2023-05-09T20:51:07.359Z,16.99
2023-05-09T20:53:38.712Z,17.02
2023-05-09T20:56:10.019Z,16.96
2023-05-09T20:58:41.292Z,17.04
2023-05-09T21:01:12.609Z,17.08
2023-05-09T21:03:43.978Z,17.14
2023-05-09T21:06:15.500Z,17.10
2023-05-09T21:08:46.789Z,17.15
2023-05-09T21:11:18.656Z,17.19
2023-05-09T21:13:50.259Z,17.32
2023-05-09T21:16:22.014Z,17.22
2023-05-09T21:18:53.400Z,17.23
2023-05-09T21:21:24.773Z,17.23
2023-05-09T21:23:56.188Z,17.34
2023-05-09T21:26:27.499Z,17.33
2023-05-09T21:28:58.873Z,17.35
2023-05-09T21:31:30.357Z,17.33
2023-05-09T21:34:01.824Z,17.33
2023-05-09T21:36:33.207Z,17.23
2023-05-09T21:39:09.479Z,17.23
2023-05-09T21:41:42.668Z,17.31
2023-05-09T21:44:14.987Z,17.29
2023-05-09T21:46:46.558Z,17.25
2023-05-09T21:49:18.117Z,17.26
2023-05-09T21:51:49.400Z,17.25
2023-05-09T21:54:20.935Z,17.26
2023-05-09T21:56:52.212Z,17.23
2023-05-09T21:59:23.500Z,17.20
2023-05-09T22:01:54.925Z,17.03
2023-05-09T22:04:26.327Z,17.03
2023-05-09T22:06:57.608Z,16.85
2023-05-09T22:09:29.759Z,16.82
2023-05-09T22:12:01.065Z,16.76
2023-05-09T22:14:35.209Z,16.61
2023-05-09T22:17:10.956Z,16.62
2023-05-09T22:19:43.092Z,16.49
2023-05-09T22:22:14.404Z,16.48
2023-05-09T22:24:45.849Z,16.34
2023-05-09T22:27:17.200Z,16.12
2023-05-09T22:29:48.475Z,16.29
2023-05-09T22:32:19.784Z,16.25
2023-05-09T22:34:51.148Z,16.11
2023-05-09T22:37:22.472Z,16.08
2023-05-09T22:39:53.751Z,15.96
2023-05-09T22:42:25.002Z,16.05
2023-05-09T22:44:56.373Z,16.01
2023-05-09T22:47:27.814Z,15.98
2023-05-09T22:49:59.309Z,15.82
2023-05-09T22:52:30.605Z,15.92
2023-05-09T22:55:01.903Z,15.88
2023-05-09T22:57:33.181Z,15.82
2023-05-09T23:00:05.148Z,15.78
2023-05-09T23:02:36.519Z,15.77
2023-05-09T23:05:08.734Z,15.72
2023-05-09T23:07:40.003Z,15.56
2023-05-09T23:10:12.387Z,15.63
2023-05-09T23:12:43.826Z,15.57
2023-05-09T23:15:15.392Z,15.63
2023-05-09T23:17:46.869Z,15.60
2023-05-09T23:20:18.601Z,15.58
2023-05-09T23:22:50.369Z,15.47
2023-05-09T23:25:21.757Z,15.45
2023-05-09T23:27:54.190Z,15.41
2023-05-09T23:30:25.642Z,15.36
2023-05-09T23:32:56.966Z,15.29
2023-05-09T23:35:28.344Z,15.28
2023-05-09T23:37:59.640Z,15.26
2023-05-09T23:40:31.215Z,15.15
2023-05-09T23:43:02.546Z,15.24
2023-05-09T23:45:33.824Z,15.15
2023-05-09T23:48:05.410Z,15.28
2023-05-09T23:50:36.700Z,15.26
2023-05-09T23:53:08.238Z,15.33
2023-05-09T23:55:39.515Z,15.42
2023-05-09T23:58:10.849Z,15.38
